Time;durP1;ratioP1;P1;durP2;ratioP2;P2;SDS_P1;SDS_P2;PMS_P1;PMS_P2;Temp;Humidity;BMP_temperature;BMP_pressure;BME280_temperature;BME280_humidity;BME280_pressure;Samples;Min_cycle;Max_cycle;Signal;HPM_P1;HPM_P2
2023/01/16 00:00:39;;;;;;;2.60;1.13;;;21.70;99.90;;;;;;5049958;28;20870;-62
2023/01/16 00:03:05;;;;;;;2.10;1.20;;;21.70;99.90;;;;;;5075078;28;21630;-59
2023/01/16 00:05:31;;;;;;;4.53;1.60;;;21.70;99.90;;;;;;5040404;28;20487;-60
2023/01/16 00:07:57;;;;;;;2.77;1.10;;;21.70;99.90;;;;;;5038505;28;20405;-59
2023/01/16 00:10:22;;;;;;;1.98;1.20;;;21.70;99.90;;;;;;5040622;28;20427;-61
2023/01/16 00:12:48;;;;;;;2.58;1.30;;;21.70;99.90;;;;;;5058883;28;20493;-59
2023/01/16 00:15:14;;;;;;;2.45;1.20;;;21.70;99.90;;;;;;5078800;28;20938;-59
2023/01/16 00:17:39;;;;;;;1.80;1.25;;;21.60;99.90;;;;;;5080995;28;20381;-59
2023/01/16 00:20:06;;;;;;;2.67;1.20;;;21.60;99.90;;;;;;5074376;28;20425;-59
2023/01/16 00:22:31;;;;;;;2.03;1.42;;;21.60;99.90;;;;;;5070727;28;20701;-59
2023/01/16 00:24:57;;;;;;;1.93;1.10;;;21.60;99.90;;;;;;5069899;28;20377;-59
2023/01/16 00:27:23;;;;;;;2.75;1.40;;;21.60;99.90;;;;;;5069971;28;20377;-59
2023/01/16 00:29:48;;;;;;;2.30;1.30;;;21.60;99.90;;;;;;5069413;28;20425;-59
2023/01/16 00:32:15;;;;;;;1.30;0.90;;;21.60;99.90;;;;;;5070098;28;20402;-60
2023/01/16 00:34:41;;;;;;;2.90;1.13;;;21.60;99.90;;;;;;5070714;28;20732;-58
2023/01/16 00:37:06;;;;;;;1.67;1.10;;;21.60;99.90;;;;;;5069415;28;20390;-58
2023/01/16 00:39:32;;;;;;;1.90;1.20;;;21.60;99.90;;;;;;5072752;28;20368;-58
2023/01/16 00:41:58;;;;;;;1.98;1.10;;;21.60;99.90;;;;;;5070857;28;20386;-58
2023/01/16 00:44:24;;;;;;;1.50;1.00;;;21.60;99.90;;;;;;5071087;28;20444;-59
2023/01/16 00:46:50;;;;;;;2.10;1.30;;;21.60;99.90;;;;;;5070313;28;20376;-59
2023/01/16 00:49:15;;;;;;;1.50;1.03;;;21.50;99.90;;;;;;5070976;28;20856;-58
2023/01/16 00:51:42;;;;;;;2.50;1.20;;;21.50;99.90;;;;;;5071730;28;20394;-59
2023/01/16 00:54:08;;;;;;;4.10;1.42;;;21.50;99.90;;;;;;5071581;28;20866;-59
2023/01/16 00:56:33;;;;;;;1.50;1.00;;;21.50;99.90;;;;;;5070844;28;20415;-58
2023/01/16 00:58:59;;;;;;;1.05;0.95;;;21.50;99.90;;;;;;5066038;28;20410;-60
2023/01/16 01:01:24;;;;;;;1.53;1.07;;;21.50;99.90;;;;;;5051437;28;20404;-61
2023/01/16 01:03:50;;;;;;;1.73;0.93;;;21.50;99.90;;;;;;5049036;28;20419;-58
2023/01/16 01:06:16;;;;;;;2.10;1.13;;;21.50;99.90;;;;;;5052208;28;20897;-59
2023/01/16 01:08:41;;;;;;;1.20;0.90;;;21.50;99.90;;;;;;5062507;28;20397;-59
2023/01/16 01:11:12;;;;;;;1.67;0.90;;;21.40;99.90;;;;;;5055017;27;20476;-59
2023/01/16 01:13:38;;;;;;;1.60;1.10;;;21.40;99.90;;;;;;5055788;28;20435;-59
2023/01/16 01:16:04;;;;;;;4.03;1.30;;;21.40;99.90;;;;;;5054008;28;20392;-58
2023/01/16 01:18:30;;;;;;;2.07;1.00;;;21.40;99.90;;;;;;5067000;28;20734;-58
2023/01/16 01:20:56;;;;;;;1.67;1.15;;;21.40;99.90;;;;;;5065067;28;20375;-59
2023/01/16 01:23:21;;;;;;;1.80;1.10;;;21.40;99.90;;;;;;5049847;28;20458;-59
2023/01/16 01:25:48;;;;;;;1.90;1.10;;;21.40;99.90;;;;;;5049635;28;20471;-59
2023/01/16 01:28:14;;;;;;;1.70;1.20;;;21.40;99.90;;;;;;5049839;28;20387;-58
2023/01/16 01:30:40;;;;;;;3.15;1.30;;;21.40;99.90;;;;;;5055269;28;20963;-59
2023/01/16 01:33:06;;;;;;;1.33;0.98;;;21.40;99.90;;;;;;5069635;28;20398;-59
2023/01/16 01:35:32;;;;;;;2.00;1.00;;;21.40;99.90;;;;;;5069823;28;20394;-58
2023/01/16 01:37:58;;;;;;;1.67;1.13;;;21.30;99.90;;;;;;5069476;28;20901;-59
2023/01/16 01:40:24;;;;;;;1.73;1.00;;;21.40;99.90;;;;;;5070254;28;20386;-59
2023/01/16 01:42:53;;;;;;;1.27;1.00;;;21.30;99.90;;;;;;5070044;28;20377;-59
2023/01/16 01:45:23;;;;;;;1.65;1.00;;;21.30;99.90;;;;;;5069483;28;20383;-59
2023/01/16 01:48:13;;;;;;;1.42;1.02;;;21.30;99.90;;;;;;5069484;28;20852;-59
2023/01/16 01:50:51;;;;;;;1.60;1.00;;;21.30;99.90;;;;;;5069581;28;20878;-59
2023/01/16 01:53:41;;;;;;;2.00;1.10;;;21.30;99.90;;;;;;5069721;28;20406;-59
2023/01/16 01:56:19;;;;;;;2.28;1.00;;;21.30;99.90;;;;;;5069681;28;20405;-58
2023/01/16 01:58:48;;;;;;;1.13;0.93;;;21.30;99.90;;;;;;5068785;28;20377;-58
2023/01/16 02:01:14;;;;;;;2.33;0.95;;;21.30;99.90;;;;;;5069157;28;20366;-59
2023/01/16 02:03:45;;;;;;;1.83;1.13;;;21.30;99.90;;;;;;5069304;28;20432;-59
2023/01/16 02:06:19;;;;;;;1.10;0.90;;;21.30;99.90;;;;;;5069228;28;20390;-60
2023/01/16 02:08:48;;;;;;;1.05;0.90;;;21.30;99.90;;;;;;5068219;28;20875;-59
2023/01/16 02:11:32;;;;;;;1.55;1.17;;;21.30;99.90;;;;;;5068992;28;20428;-59
2023/01/16 02:14:01;;;;;;;1.70;1.10;;;21.30;99.90;;;;;;5068583;28;20474;-59
2023/01/16 02:19:28;;;;;;;1.10;0.90;;;21.20;99.90;;;;;;5063203;28;20398;-58
2023/01/16 02:22:16;;;;;;;0.90;0.90;;;21.20;99.90;;;;;;5068424;28;20393;-59
2023/01/16 02:24:57;;;;;;;1.05;0.90;;;21.30;99.90;;;;;;5039462;28;20380;-59
2023/01/16 02:27:40;;;;;;;1.52;0.93;;;21.20;99.90;;;;;;5067708;28;20393;-59
2023/01/16 02:30:25;;;;;;;2.22;1.00;;;21.20;99.90;;;;;;5068975;28;20428;-59
2023/01/16 02:32:50;;;;;;;0.93;0.85;;;21.20;99.90;;;;;;5068602;28;20398;-58
2023/01/16 02:35:32;;;;;;;1.27;0.80;;;21.20;99.90;;;;;;5068913;28;20455;-58
2023/01/16 02:38:10;;;;;;;1.10;1.00;;;21.20;99.90;;;;;;5308501;22;20445;-59
2023/01/16 02:41:03;;;;;;;1.00;0.90;;;21.20;99.90;;;;;;5018191;28;20520;-59
2023/01/16 02:43:35;;;;;;;1.27;1.00;;;21.20;99.90;;;;;;5029156;28;20515;-60
2023/01/16 02:46:04;;;;;;;1.70;0.93;;;21.20;99.90;;;;;;5029347;28;20870;-59
2023/01/16 02:49:02;;;;;;;1.02;0.80;;;21.20;99.90;;;;;;5028644;28;20421;-60
2023/01/16 02:51:49;;;;;;;1.48;1.13;;;21.20;99.90;;;;;;5029200;28;20381;-59
2023/01/16 02:54:21;;;;;;;1.08;0.77;;;21.20;99.90;;;;;;5029548;28;20736;-59
2023/01/16 02:57:03;;;;;;;1.23;0.90;;;21.10;99.90;;;;;;5024735;28;20448;-59
2023/01/16 02:59:29;;;;;;;1.35;0.80;;;21.10;99.90;;;;;;5029592;28;20835;-59
2023/01/16 03:01:58;;;;;;;1.27;0.90;;;21.10;99.90;;;;;;5029365;28;20432;-59
2023/01/16 03:04:36;;;;;;;1.10;0.90;;;21.10;99.90;;;;;;5029409;28;20396;-60
2023/01/16 03:07:13;;;;;;;1.50;0.90;;;21.10;99.90;;;;;;5028289;28;20932;-59
2023/01/16 03:09:49;;;;;;;1.20;0.85;;;21.10;99.90;;;;;;5029469;28;20374;-59
2023/01/16 03:12:59;;;;;;;1.40;1.00;;;21.10;99.90;;;;;;5027665;28;20439;-59
2023/01/16 03:15:48;;;;;;;1.13;0.82;;;21.10;99.90;;;;;;5009311;28;20371;-60
2023/01/16 03:18:23;;;;;;;1.45;1.08;;;21.10;99.90;;;;;;5005446;28;20442;-59
2023/01/16 03:20:49;;;;;;;1.17;0.90;;;21.10;99.90;;;;;;5015888;28;20393;-59
2023/01/16 03:23:30;;;;;;;1.97;0.90;;;21.10;99.90;;;;;;5028449;28;20940;-60
2023/01/16 03:26:04;;;;;;;1.27;0.90;;;21.00;99.90;;;;;;5028979;28;20929;-59
2023/01/16 03:28:34;;;;;;;0.93;0.90;;;21.10;99.90;;;;;;5011355;28;20413;-59
2023/01/16 03:31:23;;;;;;;1.08;0.95;;;21.00;99.90;;;;;;4985836;28;21175;-59
2023/01/16 03:34:08;;;;;;;1.23;0.90;;;21.00;99.90;;;;;;5009789;28;20401;-59
2023/01/16 03:36:42;;;;;;;0.95;0.80;;;21.00;99.90;;;;;;5027853;28;20748;-60
2023/01/16 03:39:13;;;;;;;1.13;1.00;;;21.00;99.90;;;;;;5028270;28;20389;-59
2023/01/16 03:41:40;;;;;;;1.05;0.85;;;21.00;99.90;;;;;;5028636;28;20756;-60
2023/01/16 03:44:14;;;;;;;1.35;0.90;;;21.00;99.90;;;;;;5028423;28;20400;-60
2023/01/16 03:46:45;;;;;;;0.80;0.80;;;21.00;99.90;;;;;;5026750;28;20391;-59
2023/01/16 03:49:20;;;;;;;1.30;1.00;;;21.00;99.90;;;;;;5012266;28;20406;-60
2023/01/16 03:51:51;;;;;;;0.90;0.80;;;21.00;99.90;;;;;;5020136;28;20844;-60
2023/01/16 03:54:43;;;;;;;1.10;1.00;;;21.00;99.90;;;;;;5032361;28;20381;-60
2023/01/16 03:57:17;;;;;;;0.90;0.80;;;21.00;99.90;;;;;;5031418;28;20427;-59
2023/01/16 03:59:45;;;;;;;1.20;1.00;;;20.90;99.90;;;;;;5032388;28;20378;-59
2023/01/16 04:02:22;;;;;;;1.48;1.10;;;20.90;99.90;;;;;;5032047;28;20388;-59
2023/01/16 04:04:55;;;;;;;1.10;0.98;;;20.90;99.90;;;;;;5030156;28;20409;-59
2023/01/16 04:07:23;;;;;;;1.40;0.70;;;20.90;99.90;;;;;;5030226;28;20393;-60
2023/01/16 04:10:00;;;;;;;1.10;0.83;;;20.90;99.90;;;;;;5018964;28;21090;-61
2023/01/16 04:12:34;;;;;;;1.00;0.93;;;20.90;99.90;;;;;;5028466;28;20409;-60
2023/01/16 04:15:04;;;;;;;1.27;0.88;;;20.90;99.90;;;;;;5029703;28;20424;-60
2023/01/16 04:17:30;;;;;;;0.90;0.80;;;20.90;99.90;;;;;;5030381;28;20397;-60
2023/01/16 04:19:56;;;;;;;0.93;0.80;;;20.90;99.90;;;;;;5030980;28;20433;-60
2023/01/16 04:22:27;;;;;;;0.85;0.70;;;20.80;99.90;;;;;;5029600;28;20465;-60
2023/01/16 04:24:56;;;;;;;1.17;0.90;;;20.80;99.90;;;;;;5029996;28;20690;-60
2023/01/16 04:27:22;;;;;;;1.43;1.00;;;20.90;99.90;;;;;;5031198;28;20373;-59
2023/01/16 04:29:48;;;;;;;1.33;1.00;;;20.90;99.90;;;;;;5029991;28;20488;-59
2023/01/16 04:32:15;;;;;;;0.70;0.70;;;20.90;99.90;;;;;;5030262;28;20529;-60
2023/01/16 04:34:40;;;;;;;1.33;0.70;;;20.90;99.90;;;;;;5013396;28;20907;-59
2023/01/16 04:37:06;;;;;;;1.08;0.82;;;20.80;99.90;;;;;;5028708;28;20397;-59
2023/01/16 04:39:32;;;;;;;1.02;0.70;;;20.90;99.90;;;;;;5030698;28;20523;-60
2023/01/16 04:41:57;;;;;;;0.90;0.70;;;20.90;99.90;;;;;;5029591;28;20463;-60
2023/01/16 04:44:23;;;;;;;1.00;0.80;;;20.90;99.90;;;;;;5030018;28;20455;-60
2023/01/16 04:46:49;;;;;;;0.98;0.80;;;20.80;99.90;;;;;;5030161;28;20377;-59
2023/01/16 04:49:15;;;;;;;1.23;0.90;;;20.80;99.90;;;;;;5030977;28;20886;-59
2023/01/16 04:51:41;;;;;;;1.05;0.90;;;20.80;99.90;;;;;;5029850;28;20389;-59
2023/01/16 04:54:09;;;;;;;0.97;0.80;;;20.80;99.90;;;;;;5030641;28;20901;-60
2023/01/16 04:56:35;;;;;;;0.95;0.82;;;20.80;99.90;;;;;;5010861;28;20943;-59
2023/01/16 04:59:01;;;;;;;0.77;0.77;;;20.80;99.90;;;;;;5010440;28;20391;-59
2023/01/16 05:01:34;;;;;;;0.70;0.70;;;20.80;99.90;;;;;;5013030;28;20438;-60
2023/01/16 05:04:06;;;;;;;0.80;0.80;;;20.80;99.90;;;;;;5031100;28;20460;-60
2023/01/16 05:06:33;;;;;;;1.25;0.80;;;20.80;99.90;;;;;;5031386;28;20396;-60
2023/01/16 05:08:59;;;;;;;0.80;0.70;;;20.70;99.90;;;;;;5030237;28;20778;-60
2023/01/16 05:11:25;;;;;;;1.00;0.80;;;20.70;99.90;;;;;;5029805;28;20445;-60
2023/01/16 05:13:50;;;;;;;0.80;0.80;;;20.70;99.90;;;;;;5033527;28;20415;-60
2023/01/16 05:16:16;;;;;;;0.83;0.80;;;20.70;99.90;;;;;;5043226;28;20392;-60
2023/01/16 05:18:42;;;;;;;1.10;0.80;;;20.70;99.90;;;;;;5010107;28;20455;-60
2023/01/16 05:21:07;;;;;;;0.93;0.77;;;20.70;99.90;;;;;;5010919;28;20386;-58
2023/01/16 05:23:34;;;;;;;1.05;0.80;;;20.80;99.90;;;;;;5010191;28;20832;-60
2023/01/16 05:26:01;;;;;;;0.80;0.70;;;20.80;99.90;;;;;;5010801;28;20379;-60
2023/01/16 05:28:27;;;;;;;0.90;0.80;;;20.80;99.90;;;;;;5012354;28;20411;-59
2023/01/16 05:30:53;;;;;;;0.70;0.70;;;20.80;99.90;;;;;;5030032;28;20447;-60
2023/01/16 05:33:18;;;;;;;0.70;0.70;;;20.70;99.90;;;;;;5028785;28;20409;-59
2023/01/16 05:35:47;;;;;;;0.93;0.80;;;20.70;99.90;;;;;;5030207;28;20381;-61
2023/01/16 05:38:14;;;;;;;0.80;0.80;;;20.80;99.90;;;;;;5024404;28;20394;-59
2023/01/16 05:40:41;;;;;;;0.80;0.70;;;20.80;99.90;;;;;;5010274;28;21188;-59
2023/01/16 05:43:07;;;;;;;0.82;0.63;;;20.70;99.90;;;;;;5011828;28;20470;-59
2023/01/16 05:45:32;;;;;;;1.45;0.70;;;20.70;99.90;;;;;;5029364;28;20464;-59
2023/01/16 05:47:58;;;;;;;1.75;1.00;;;20.70;99.90;;;;;;5027297;28;20923;-60
2023/01/16 05:50:24;;;;;;;1.10;0.80;;;20.80;99.90;;;;;;5026832;28;20804;-59
2023/01/16 05:52:50;;;;;;;1.00;0.80;;;20.80;99.90;;;;;;5027742;28;20971;-60
2023/01/16 05:55:16;;;;;;;0.68;0.63;;;20.80;99.90;;;;;;5028289;28;20911;-59
2023/01/16 05:57:42;;;;;;;1.00;0.80;;;20.80;99.90;;;;;;5027540;28;20488;-60
2023/01/16 06:00:08;;;;;;;0.73;0.70;;;20.80;99.90;;;;;;5027733;28;20562;-59
2023/01/16 06:02:35;;;;;;;1.03;0.83;;;20.80;99.90;;;;;;5028980;28;20385;-59
2023/01/16 06:05:00;;;;;;;0.97;0.80;;;20.80;99.90;;;;;;5025166;28;20445;-60
2023/01/16 06:07:26;;;;;;;0.80;0.80;;;20.80;99.90;;;;;;5008372;28;20870;-59
2023/01/16 06:09:52;;;;;;;0.60;0.60;;;20.80;99.90;;;;;;5016940;28;20494;-59
2023/01/16 06:12:19;;;;;;;0.70;0.70;;;20.90;99.90;;;;;;5020392;28;20421;-59
2023/01/16 06:14:45;;;;;;;0.70;0.70;;;20.80;99.90;;;;;;5015084;28;20393;-59
2023/01/16 06:17:11;;;;;;;0.87;0.80;;;20.90;99.90;;;;;;5012794;28;20464;-59
2023/01/16 06:19:36;;;;;;;0.95;0.70;;;20.90;99.90;;;;;;5021825;28;20529;-61
2023/01/16 06:22:02;;;;;;;0.67;0.67;;;20.90;99.90;;;;;;5012011;28;20366;-60
2023/01/16 06:24:28;;;;;;;1.00;0.73;;;20.90;99.90;;;;;;5021348;28;20408;-59
2023/01/16 06:26:53;;;;;;;0.80;0.70;;;20.90;99.90;;;;;;5017247;28;20396;-59
2023/01/16 06:29:19;;;;;;;1.00;0.67;;;20.90;99.90;;;;;;5023017;28;21053;-59
2023/01/16 06:31:44;;;;;;;1.35;0.80;;;21.00;99.90;;;;;;5018719;28;20404;-59
2023/01/16 06:34:11;;;;;;;0.60;0.60;;;20.90;99.90;;;;;;5020702;28;20405;-58
2023/01/16 06:36:37;;;;;;;0.60;0.60;;;21.00;99.90;;;;;;5029769;28;20386;-59
2023/01/16 06:39:03;;;;;;;0.80;0.73;;;21.00;99.90;;;;;;5029130;28;20393;-60
2023/01/16 06:41:29;;;;;;;0.63;0.60;;;21.00;99.90;;;;;;5028876;28;20455;-59
2023/01/16 06:43:54;;;;;;;1.23;0.80;;;21.00;99.90;;;;;;5029611;28;20779;-59
2023/01/16 06:46:20;;;;;;;0.65;0.65;;;21.00;99.90;;;;;;5029073;28;20408;-59
2023/01/16 06:48:45;;;;;;;0.70;0.60;;;21.10;99.90;;;;;;5028905;28;20388;-59
2023/01/16 06:51:11;;;;;;;1.27;0.70;;;21.10;99.90;;;;;;5029789;28;20878;-59
2023/01/16 06:53:37;;;;;;;1.48;0.73;;;21.10;99.90;;;;;;5030080;28;20412;-59
2023/01/16 06:56:03;;;;;;;1.70;0.67;;;21.10;99.90;;;;;;5029537;28;20443;-58
2023/01/16 06:58:29;;;;;;;0.65;0.65;;;21.10;99.90;;;;;;5028847;28;20389;-59
2023/01/16 07:00:55;;;;;;;1.90;0.70;;;21.10;99.90;;;;;;5029643;28;20386;-59
2023/01/16 07:03:21;;;;;;;1.25;0.60;;;21.10;99.90;;;;;;5029482;28;20435;-58
2023/01/16 07:05:47;;;;;;;1.20;0.85;;;21.10;99.90;;;;;;5029631;28;20386;-59
2023/01/16 07:08:13;;;;;;;0.85;0.70;;;21.10;99.90;;;;;;5028990;28;20377;-59
2023/01/16 07:10:39;;;;;;;0.80;0.77;;;21.10;99.90;;;;;;5029278;28;20515;-59
2023/01/16 07:13:05;;;;;;;0.95;0.82;;;21.10;99.90;;;;;;5029526;28;20492;-59
2023/01/16 07:23:51;;;;;;;4.70;1.10;;;21.00;99.90;;;;;;5031715;28;20894;-59
2023/01/16 07:26:19;;;;;;;3.30;1.00;;;20.80;99.90;;;;;;5032599;28;20579;-58
2023/01/16 07:28:45;;;;;;;1.45;1.20;;;20.90;99.90;;;;;;5031656;28;20400;-59
2023/01/16 07:31:12;;;;;;;2.05;1.00;;;21.00;99.90;;;;;;5027377;28;20454;-59
2023/01/16 07:33:37;;;;;;;3.55;1.13;;;21.00;99.90;;;;;;5034015;28;20419;-59
2023/01/16 07:36:03;;;;;;;4.90;1.23;;;20.90;99.90;;;;;;5034490;28;20393;-59
2023/01/16 07:38:29;;;;;;;4.68;1.20;;;20.90;99.90;;;;;;5032327;28;20409;-59
2023/01/16 07:40:55;;;;;;;3.90;1.00;;;20.90;99.90;;;;;;5031608;28;20910;-59
2023/01/16 07:43:21;;;;;;;2.33;1.07;;;20.90;99.90;;;;;;5032662;28;20409;-60
2023/01/16 07:45:51;;;;;;;4.65;1.00;;;20.90;99.90;;;;;;5031357;28;20867;-59
2023/01/16 07:48:22;;;;;;;2.70;0.80;;;20.90;99.90;;;;;;5027264;28;20390;-59
2023/01/16 07:50:58;;;;;;;5.00;1.40;;;20.90;99.90;;;;;;5012378;28;20798;-59
2023/01/16 07:53:27;;;;;;;1.45;0.88;;;21.00;99.90;;;;;;5012377;28;20870;-59
2023/01/16 07:55:56;;;;;;;2.35;1.00;;;21.00;99.90;;;;;;5012747;28;20411;-59
2023/01/16 07:58:22;;;;;;;3.33;1.10;;;21.00;99.90;;;;;;5012253;28;20391;-59
2023/01/16 08:00:48;;;;;;;4.80;1.00;;;20.90;99.90;;;;;;5012504;28;20858;-59
2023/01/16 08:03:14;;;;;;;2.38;0.93;;;20.90;99.90;;;;;;5026664;28;20465;-60
2023/01/16 08:05:43;;;;;;;2.37;1.00;;;21.00;99.90;;;;;;5032071;28;20394;-58
2023/01/16 08:08:09;;;;;;;2.20;0.93;;;21.00;99.90;;;;;;5031278;28;20897;-60
2023/01/16 08:10:34;;;;;;;2.75;1.20;;;21.00;99.90;;;;;;5021158;28;20387;-59
2023/01/16 08:13:00;;;;;;;1.57;0.97;;;21.00;99.90;;;;;;5012998;28;20461;-59
2023/01/16 08:15:26;;;;;;;4.78;0.85;;;21.10;99.90;;;;;;5012857;28;20407;-60
2023/01/16 08:17:51;;;;;;;2.40;1.00;;;21.10;99.90;;;;;;5016062;28;20496;-59
2023/01/16 08:20:17;;;;;;;3.08;1.00;;;21.10;99.90;;;;;;5024575;28;20470;-60
2023/01/16 08:22:49;;;;;;;4.40;1.05;;;21.00;99.90;;;;;;5020291;28;20466;-60
2023/01/16 08:25:17;;;;;;;3.15;1.02;;;21.00;99.90;;;;;;5029599;28;20433;-59
2023/01/16 08:27:43;;;;;;;3.13;0.88;;;21.00;99.90;;;;;;5018563;28;20400;-60
2023/01/16 08:30:10;;;;;;;2.57;1.10;;;21.00;99.90;;;;;;5027646;28;20393;-60
2023/01/16 08:32:35;;;;;;;2.80;1.10;;;21.00;99.90;;;;;;5029164;28;20401;-59
2023/01/16 08:35:03;;;;;;;2.22;1.02;;;21.10;99.90;;;;;;5030318;28;20785;-59
2023/01/16 08:37:30;;;;;;;1.83;0.95;;;21.10;99.90;;;;;;5030037;28;20868;-60
2023/01/16 08:39:55;;;;;;;2.10;0.95;;;21.10;99.90;;;;;;5046952;28;20372;-60
2023/01/16 08:53:21;;;;;;;2.53;1.02;;;21.00;99.90;;;;;;5010324;28;20501;-60
2023/01/16 08:55:46;;;;;;;3.30;1.00;;;21.00;99.90;;;;;;5010235;28;20445;-59
2023/01/16 08:58:12;;;;;;;3.25;1.30;;;21.00;99.90;;;;;;5008943;28;20799;-59
2023/01/16 09:00:38;;;;;;;3.55;1.15;;;21.00;99.90;;;;;;5010155;28;20383;-60
2023/01/16 09:03:03;;;;;;;3.80;1.13;;;21.00;99.90;;;;;;5009817;28;20418;-60
2023/01/16 09:05:29;;;;;;;5.07;1.40;;;21.10;99.90;;;;;;5009557;28;20470;-60
2023/01/16 09:07:55;;;;;;;6.80;1.60;;;21.00;99.90;;;;;;5009073;28;20391;-59
2023/01/16 09:10:21;;;;;;;4.88;1.45;;;21.00;99.90;;;;;;5009986;28;20465;-59
2023/01/16 09:15:31;;;;;;;5.80;1.60;;;21.00;99.90;;;;;;5009765;28;20589;-60
2023/01/16 09:17:57;;;;;;;3.90;1.27;;;21.00;99.90;;;;;;5008345;28;20565;-60
2023/01/16 09:20:22;;;;;;;2.42;1.00;;;21.00;99.90;;;;;;5009508;28;20715;-60
2023/01/16 09:22:48;;;;;;;5.80;1.30;;;21.00;99.90;;;;;;5008448;28;20912;-59
2023/01/16 09:25:13;;;;;;;3.53;1.40;;;21.00;99.90;;;;;;5010025;28;20382;-60
2023/01/16 09:27:39;;;;;;;5.65;1.20;;;21.00;99.90;;;;;;5008325;28;20874;-60
2023/01/16 09:30:05;;;;;;;4.97;1.50;;;21.00;99.90;;;;;;5009131;28;20935;-59
2023/01/16 09:32:33;;;;;;;3.47;1.30;;;21.00;99.90;;;;;;5008765;28;20395;-60
2023/01/16 09:34:59;;;;;;;6.03;1.60;;;21.00;99.90;;;;;;5009063;28;20510;-59
2023/01/16 09:37:24;;;;;;;3.03;1.08;;;21.00;99.90;;;;;;5007252;28;20881;-60
2023/01/16 09:39:50;;;;;;;5.50;1.35;;;21.00;99.90;;;;;;5008959;28;20413;-59
2023/01/16 09:45:25;;;;;;;5.88;1.70;;;21.00;99.90;;;;;;5008871;28;20810;-59
2023/01/16 09:47:56;;;;;;;3.05;1.30;;;21.00;99.90;;;;;;5008180;28;20379;-60
2023/01/16 09:50:45;;;;;;;5.43;1.40;;;21.00;99.90;;;;;;5010132;28;20370;-59
2023/01/16 09:59:00;;;;;;;2.33;1.30;;;21.10;99.90;;;;;;5028199;28;20488;-59
2023/01/16 10:01:33;;;;;;;3.35;1.33;;;21.10;99.90;;;;;;5027294;28;20450;-60
2023/01/16 10:04:19;;;;;;;3.63;1.40;;;21.10;99.90;;;;;;5029420;28;20735;-60
2023/01/16 10:07:00;;;;;;;5.90;1.42;;;21.20;99.90;;;;;;5028416;28;20985;-60
2023/01/16 10:09:34;;;;;;;4.00;1.40;;;21.20;99.90;;;;;;5028620;28;20937;-60
2023/01/16 10:12:08;;;;;;;3.17;1.40;;;21.20;99.90;;;;;;5028701;28;20378;-59
2023/01/16 10:15:12;;;;;;;2.97;1.23;;;21.20;99.90;;;;;;5029187;28;20377;-59
2023/01/16 10:18:00;;;;;;;3.45;1.58;;;21.30;99.90;;;;;;5023514;28;20796;-59
2023/01/16 10:20:35;;;;;;;4.97;1.33;;;21.30;99.90;;;;;;5026285;28;20393;-59
2023/01/16 10:23:29;;;;;;;4.00;1.33;;;21.30;99.90;;;;;;5029013;28;20856;-59
2023/01/16 10:26:22;;;;;;;3.22;1.15;;;21.30;99.90;;;;;;5029753;28;20468;-59
2023/01/16 10:29:21;;;;;;;4.80;1.20;;;21.40;99.90;;;;;;5027914;28;20732;-59
2023/01/16 10:32:12;;;;;;;2.97;1.30;;;21.40;99.90;;;;;;5027090;28;20744;-59
2023/01/16 10:34:49;;;;;;;3.72;1.20;;;21.40;99.90;;;;;;5028307;28;20378;-59
2023/01/16 10:37:15;;;;;;;2.80;1.30;;;21.50;99.90;;;;;;5027081;28;20385;-59
2023/01/16 10:39:41;;;;;;;2.50;1.30;;;21.50;99.90;;;;;;5027587;28;20389;-59
2023/01/16 10:50:36;;;;;;;2.28;1.08;;;21.10;99.90;;;;;;5028363;28;20408;-59
2023/01/16 10:53:04;;;;;;;2.17;1.10;;;21.00;99.90;;;;;;5027332;28;20405;-59
2023/01/16 10:55:31;;;;;;;3.45;1.25;;;21.10;99.90;;;;;;5027824;28;20455;-60
2023/01/16 10:58:02;;;;;;;3.70;1.20;;;21.10;99.90;;;;;;5026667;28;20373;-59
2023/01/16 11:00:33;;;;;;;4.05;1.40;;;21.10;99.90;;;;;;5027810;28;20464;-59
2023/01/16 11:03:08;;;;;;;3.35;1.48;;;21.20;99.90;;;;;;5027988;28;20619;-59
2023/01/16 11:05:36;;;;;;;4.00;1.30;;;21.20;99.90;;;;;;5026987;28;20452;-59
2023/01/16 11:08:10;;;;;;;2.80;1.00;;;21.30;99.90;;;;;;5025908;28;20500;-59
2023/01/16 11:10:36;;;;;;;2.28;1.20;;;21.30;99.90;;;;;;5027711;28;21561;-59
2023/01/16 11:19:14;;;;;;;4.38;1.20;;;21.40;99.90;;;;;;5026695;28;20452;-59
2023/01/16 11:21:43;;;;;;;3.88;1.15;;;21.40;99.90;;;;;;5027782;28;20440;-59
2023/01/16 11:24:17;;;;;;;2.88;1.20;;;21.40;99.90;;;;;;5027590;28;20382;-60
2023/01/16 11:26:48;;;;;;;2.78;1.13;;;21.50;99.90;;;;;;5027202;28;20440;-59
2023/01/16 11:29:23;;;;;;;4.47;0.90;;;21.50;99.90;;;;;;5027367;28;20492;-59
2023/01/16 11:31:54;;;;;;;3.47;1.20;;;21.50;99.90;;;;;;5027009;28;20378;-59
2023/01/16 11:34:25;;;;;;;4.22;1.13;;;21.50;99.90;;;;;;5027282;28;20516;-59
2023/01/16 11:36:56;;;;;;;3.17;1.20;;;21.50;99.90;;;;;;5026489;28;20428;-59
2023/01/16 11:39:25;;;;;;;3.38;1.10;;;21.50;99.90;;;;;;5027428;28;20796;-59
2023/01/16 11:41:53;;;;;;;3.78;1.10;;;21.50;99.90;;;;;;5027682;28;20536;-59
2023/01/16 11:47:22;;;;;;;2.92;1.20;;;21.60;99.90;;;;;;5026863;28;20496;-60
2023/01/16 11:49:50;;;;;;;2.40;1.15;;;21.60;99.90;;;;;;5027046;28;20787;-59
2023/01/16 11:52:29;;;;;;;2.67;1.05;;;21.60;99.90;;;;;;5027833;28;20745;-60
2023/01/16 11:54:56;;;;;;;2.20;1.07;;;21.70;99.90;;;;;;5027428;28;20460;-59
2023/01/16 11:57:40;;;;;;;3.00;1.20;;;21.70;99.90;;;;;;5026736;28;20378;-59
2023/01/16 12:00:25;;;;;;;3.50;1.30;;;21.70;99.90;;;;;;5027000;28;20373;-59
2023/01/16 12:03:16;;;;;;;5.43;1.70;;;21.70;99.90;;;;;;5024580;28;20725;-59
2023/01/16 12:06:22;;;;;;;2.33;1.40;;;21.80;99.90;;;;;;5028504;28;20731;-59
2023/01/16 12:09:15;;;;;;;4.18;1.10;;;21.80;99.90;;;;;;5020616;28;20402;-59
2023/01/16 12:14:58;;;;;;;4.57;1.30;;;21.80;99.90;;;;;;5021859;28;20388;-60
2023/01/16 12:17:55;;;;;;;4.78;1.20;;;21.80;99.90;;;;;;5028008;28;20388;-59
2023/01/16 12:20:47;;;;;;;4.10;1.40;;;21.70;99.90;;;;;;5028606;28;20382;-59
2023/01/16 12:23:38;;;;;;;5.50;1.52;;;21.80;99.90;;;;;;5025000;28;20393;-59
2023/01/16 12:26:19;;;;;;;4.25;1.30;;;21.80;99.90;;;;;;5028160;28;20373;-59
2023/01/16 12:28:47;;;;;;;4.32;1.35;;;21.70;99.90;;;;;;5029046;28;20377;-59
2023/01/16 12:31:38;;;;;;;7.13;1.95;;;21.80;99.90;;;;;;5030158;28;20374;-59
2023/01/16 12:34:41;;;;;;;5.22;1.50;;;21.70;99.90;;;;;;5031450;28;20448;-58
2023/01/16 12:37:28;;;;;;;7.28;1.98;;;21.80;99.90;;;;;;5030834;28;20374;-59
2023/01/16 12:40:17;;;;;;;3.55;1.50;;;21.80;99.90;;;;;;5031025;28;20393;-60
2023/01/16 12:43:20;;;;;;;4.07;1.40;;;21.80;99.90;;;;;;5030795;28;20370;-58
2023/01/16 12:46:11;;;;;;;2.85;1.45;;;21.70;99.90;;;;;;5030943;28;20388;-59
2023/01/16 12:48:48;;;;;;;3.60;1.30;;;21.70;99.90;;;;;;5030571;28;20385;-59
2023/01/16 12:51:20;;;;;;;3.97;1.30;;;21.70;99.90;;;;;;5030621;28;20390;-59
2023/01/16 12:53:48;;;;;;;4.03;1.55;;;21.70;99.90;;;;;;5031182;28;20397;-59
2023/01/16 12:56:35;;;;;;;4.22;1.58;;;21.70;99.90;;;;;;5030495;28;20373;-59
2023/01/16 12:59:21;;;;;;;8.10;2.78;;;21.80;99.90;;;;;;5029784;28;20377;-59
2023/01/16 13:01:51;;;;;;;4.10;1.67;;;21.80;99.90;;;;;;5027345;28;20398;-59
2023/01/16 13:04:23;;;;;;;5.88;1.77;;;21.80;99.90;;;;;;5020960;28;20708;-59
2023/01/16 13:07:02;;;;;;;6.22;1.70;;;21.80;99.90;;;;;;5010564;28;20379;-59
2023/01/16 13:09:44;;;;;;;6.15;1.75;;;21.80;99.90;;;;;;5030554;28;20776;-58
2023/01/16 13:15:30;;;;;;;3.80;1.52;;;21.80;99.90;;;;;;5017151;28;20398;-59
2023/01/16 13:18:03;;;;;;;4.53;1.88;;;21.80;99.90;;;;;;5012104;28;20393;-60
2023/01/16 13:20:31;;;;;;;7.28;2.17;;;21.80;99.90;;;;;;5030560;28;20463;-58
2023/01/16 13:23:17;;;;;;;4.53;1.30;;;21.70;99.90;;;;;;5030792;28;20732;-59
2023/01/16 13:25:46;;;;;;;4.75;1.58;;;21.80;99.90;;;;;;5016283;28;20394;-59
2023/01/16 13:28:25;;;;;;;3.47;1.52;;;21.80;99.90;;;;;;5010088;28;21154;-59
2023/01/16 13:30:58;;;;;;;4.57;1.73;;;21.80;99.90;;;;;;5023699;28;20408;-59
2023/01/16 13:33:29;;;;;;;5.78;1.60;;;21.80;99.90;;;;;;5022006;28;20502;-60
2023/01/16 13:36:03;;;;;;;4.50;1.70;;;21.70;99.90;;;;;;5016030;28;20451;-59
2023/01/16 13:38:50;;;;;;;2.47;1.27;;;21.70;99.90;;;;;;5029649;28;20401;-59
2023/01/16 13:41:43;;;;;;;3.47;1.50;;;21.70;99.90;;;;;;5030628;28;20396;-59
2023/01/16 13:47:12;;;;;;;4.28;1.35;;;21.70;99.90;;;;;;5020349;28;20495;-61
2023/01/16 13:49:38;;;;;;;6.30;1.42;;;21.70;99.90;;;;;;5018061;28;20903;-60
2023/01/16 13:52:14;;;;;;;4.32;1.40;;;21.70;99.90;;;;;;5023026;28;20798;-58
2023/01/16 13:54:46;;;;;;;3.67;1.50;;;21.70;99.90;;;;;;5028966;28;20413;-60
2023/01/16 13:57:21;;;;;;;5.13;1.48;;;21.70;99.90;;;;;;5029050;28;20381;-59
2023/01/16 13:59:48;;;;;;;2.90;1.20;;;21.70;99.90;;;;;;5030103;28;20766;-59
2023/01/16 14:02:25;;;;;;;4.15;1.33;;;21.70;99.90;;;;;;5029794;28;20405;-59
2023/01/16 14:05:20;;;;;;;3.83;1.42;;;21.70;99.90;;;;;;5022744;28;20406;-59
2023/01/16 14:10:57;;;;;;;2.53;1.15;;;21.60;99.90;;;;;;5010707;28;20429;-59
2023/01/16 14:13:37;;;;;;;3.75;1.30;;;21.60;99.90;;;;;;5010684;28;20853;-59